PWSweather.com
Personal Weather Stations
Station Observations
SELKIRK1
Ontario, Selkirk, ON N0A 1P0

OntarioSelkirk, ON N0A 1P0

Lat: 42.8083652, Lon: -79.94971040000001

Elevation: 583

Station Type: Acurite 5 in 1

http://gavinsurf.com

High Low Average
Temperature 83.0°F28.3°C 60.8°F16.0°C 72.1°F22.3°C
Dew Point 72.9°F22.7°C 60.5°F15.8°C 66.2°F19.0°C
Winds 6.9 mph 11.1 kmh Calm Calm 2.0 mph S3.2 kmh S
Wind Gusts 6.9 mph11.1 kmh -- 3.0 mph4.8 kmh
Humidity 99% 53% 83%
Pressure 31.89 in1079.9 mb 30.39 in1029.1 mb -
Precipitation 0.00 in0.0 mm - -
Hour Temp Dew Point Humidity Winds Wind Gusts Pressure Precip Precip Rate Daily Precip Total
12:00 AM 66.0°F18.9°C 64.8°F18.2°C 96% Calm Calm -- 31.89 in1079.9 mb - 0.00 in0.0 mm 0.00 in0.0 mm
12:10 AM 65.9°F18.8°C 65.1°F18.4°C 97% Calm Calm -- 31.89 in1079.9 mb - 0.00 in0.0 mm 0.00 in0.0 mm
12:15 AM 65.5°F18.6°C 64.6°F18.1°C 97% Calm Calm -- 31.89 in1079.9 mb - 0.00 in0.0 mm 0.00 in0.0 mm
12:20 AM 64.8°F18.2°C 64.5°F18.1°C 99% Calm Calm -- 31.89 in1079.9 mb - 0.00 in0.0 mm 0.00 in0.0 mm
12:25 AM 64.6°F18.1°C 64.3°F17.9°C 99% Calm Calm -- 31.89 in1079.9 mb - 0.00 in0.0 mm 0.00 in0.0 mm
12:30 AM 64.6°F18.1°C 64.3°F17.9°C 99% Calm Calm -- 31.89 in1079.9 mb - 0.00 in0.0 mm 0.00 in0.0 mm
12:35 AM 64.2°F17.9°C 63.9°F17.7°C 99% Calm Calm -- 31.89 in1079.9 mb - 0.00 in0.0 mm 0.00 in0.0 mm
12:40 AM 64.2°F17.9°C 63.9°F17.7°C 99% Calm Calm -- 31.89 in1079.9 mb - 0.00 in0.0 mm 0.00 in0.0 mm
12:45 AM 64.2°F17.9°C 63.9°F17.7°C 99% Calm Calm -- 31.89 in1079.9 mb - 0.00 in0.0 mm 0.00 in0.0 mm
12:50 AM 64.2°F17.9°C 63.9°F17.7°C 99% Calm Calm -- 31.89 in1079.9 mb - 0.00 in0.0 mm 0.00 in0.0 mm
12:55 AM 64.2°F17.9°C 63.9°F17.7°C 99% Calm Calm -- 31.89 in1079.9 mb - 0.00 in0.0 mm 0.00 in0.0 mm
01:00 AM 63.9°F17.7°C 63.6°F17.6°C 99% Calm Calm -- 31.89 in1079.9 mb - 0.00 in0.0 mm 0.00 in0.0 mm
01:10 AM 63.9°F17.7°C 63.6°F17.6°C 99% Calm Calm -- 31.89 in1079.9 mb - 0.00 in0.0 mm 0.00 in0.0 mm
01:15 AM 63.9°F17.7°C 63.3°F17.4°C 98% Calm Calm -- 31.89 in1079.9 mb - 0.00 in0.0 mm 0.00 in0.0 mm
01:20 AM 63.7°F17.6°C 63.1°F17.3°C 98% Calm Calm -- 31.89 in1079.9 mb - 0.00 in0.0 mm 0.00 in0.0 mm
01:25 AM 63.7°F17.6°C 63.1°F17.3°C 98% Calm Calm -- 31.89 in1079.9 mb - 0.00 in0.0 mm 0.00 in0.0 mm
01:30 AM 63.7°F17.6°C 63.4°F17.4°C 99% Calm Calm -- 31.89 in1079.9 mb - 0.00 in0.0 mm 0.00 in0.0 mm
01:35 AM 63.5°F17.5°C 63.2°F17.3°C 99% Calm Calm -- 31.89 in1079.9 mb - 0.00 in0.0 mm 0.00 in0.0 mm
01:40 AM 63.2°F17.3°C 62.9°F17.2°C 99% Calm Calm -- 31.89 in1079.9 mb - 0.00 in0.0 mm 0.00 in0.0 mm
01:45 AM 63.2°F17.3°C 62.9°F17.2°C 99% Calm Calm -- 31.89 in1079.9 mb - 0.00 in0.0 mm 0.00 in0.0 mm
01:50 AM 63.0°F17.2°C 62.7°F17.1°C 99% Calm Calm -- 31.89 in1079.9 mb - 0.00 in0.0 mm 0.00 in0.0 mm
01:55 AM 63.0°F17.2°C 62.7°F17.1°C 99% Calm Calm -- 31.89 in1079.9 mb - 0.00 in0.0 mm 0.00 in0.0 mm
02:00 AM 62.6°F17.0°C 62.3°F16.8°C 99% Calm Calm -- 31.89 in1079.9 mb - 0.00 in0.0 mm 0.00 in0.0 mm
02:10 AM 62.4°F16.9°C 62.1°F16.7°C 99% Calm Calm -- 31.89 in1079.9 mb - 0.00 in0.0 mm 0.00 in0.0 mm
02:15 AM 62.4°F16.9°C 62.1°F16.7°C 99% Calm Calm -- 31.89 in1079.9 mb - 0.00 in0.0 mm 0.00 in0.0 mm
02:20 AM 62.4°F16.9°C 62.1°F16.7°C 99% Calm Calm -- 31.89 in1079.9 mb - 0.00 in0.0 mm 0.00 in0.0 mm
02:25 AM 62.1°F16.7°C 61.8°F16.6°C 99% Calm Calm -- 31.89 in1079.9 mb - 0.00 in0.0 mm 0.00 in0.0 mm
02:30 AM 62.1°F16.7°C 61.8°F16.6°C 99% Calm Calm -- 31.89 in1079.9 mb - 0.00 in0.0 mm 0.00 in0.0 mm
02:35 AM 62.1°F16.7°C 61.8°F16.6°C 99% Calm Calm -- 31.89 in1079.9 mb - 0.00 in0.0 mm 0.00 in0.0 mm
02:40 AM 62.1°F16.7°C 61.8°F16.6°C 99% Calm Calm -- 31.89 in1079.9 mb - 0.00 in0.0 mm 0.00 in0.0 mm
02:45 AM 62.4°F16.9°C 62.1°F16.7°C 99% Calm Calm -- 31.89 in1079.9 mb - 0.00 in0.0 mm 0.00 in0.0 mm
02:50 AM 62.8°F17.1°C 62.2°F16.8°C 98% Calm Calm -- 31.89 in1079.9 mb - 0.00 in0.0 mm 0.00 in0.0 mm
02:55 AM 63.0°F17.2°C 62.4°F16.9°C 98% Calm Calm -- 31.89 in1079.9 mb - 0.00 in0.0 mm 0.00 in0.0 mm
03:00 AM 62.4°F16.9°C 62.1°F16.7°C 99% Calm Calm -- 31.89 in1079.9 mb - 0.00 in0.0 mm 0.00 in0.0 mm
03:10 AM 61.9°F16.6°C 61.6°F16.4°C 99% Calm Calm -- 31.89 in1079.9 mb - 0.00 in0.0 mm 0.00 in0.0 mm
03:15 AM 61.7°F16.5°C 61.4°F16.3°C 99% Calm Calm -- 31.89 in1079.9 mb - 0.00 in0.0 mm 0.00 in0.0 mm
03:20 AM 61.7°F16.5°C 61.4°F16.3°C 99% Calm Calm -- 31.89 in1079.9 mb - 0.00 in0.0 mm 0.00 in0.0 mm
03:25 AM 61.7°F16.5°C 61.4°F16.3°C 99% Calm Calm -- 31.89 in1079.9 mb - 0.00 in0.0 mm 0.00 in0.0 mm
03:30 AM 61.7°F16.5°C 61.4°F16.3°C 99% Calm Calm -- 31.89 in1079.9 mb - 0.00 in0.0 mm 0.00 in0.0 mm
03:35 AM 61.7°F16.5°C 61.4°F16.3°C 99% Calm Calm -- 31.89 in1079.9 mb - 0.00 in0.0 mm 0.00 in0.0 mm
03:40 AM 61.7°F16.5°C 61.4°F16.3°C 99% Calm Calm -- 31.89 in1079.9 mb - 0.00 in0.0 mm 0.00 in0.0 mm
03:45 AM 62.1°F16.7°C 61.8°F16.6°C 99% Calm Calm 4.6 mph7.4 kmh 31.89 in1079.9 mb - 0.00 in0.0 mm 0.00 in0.0 mm
03:50 AM 61.9°F16.6°C 61.6°F16.4°C 99% 4.6 mph NW7.4 kmh NW 4.6 mph7.4 kmh 31.89 in1079.9 mb - 0.00 in0.0 mm 0.00 in0.0 mm
03:55 AM 61.7°F16.5°C 61.4°F16.3°C 99% 4.6 mph NW7.4 kmh NW 5.8 mph9.3 kmh 31.89 in1079.9 mb - 0.00 in0.0 mm 0.00 in0.0 mm
04:00 AM 61.5°F16.4°C 61.2°F16.2°C 99% 3.5 mph NW5.6 kmh NW 4.6 mph7.4 kmh 31.89 in1079.9 mb - 0.00 in0.0 mm 0.00 in0.0 mm
04:10 AM 61.2°F16.2°C 60.9°F16.1°C 99% 5.8 mph NW9.3 kmh NW 5.8 mph9.3 kmh 31.89 in1079.9 mb - 0.00 in0.0 mm 0.00 in0.0 mm
04:15 AM 61.2°F16.2°C 60.9°F16.1°C 99% 6.9 mph NNW11.1 kmh NNW 6.9 mph11.1 kmh 31.89 in1079.9 mb - 0.00 in0.0 mm 0.00 in0.0 mm
04:20 AM 61.2°F16.2°C 60.9°F16.1°C 99% 5.8 mph NW9.3 kmh NW 5.8 mph9.3 kmh 31.89 in1079.9 mb - 0.00 in0.0 mm 0.00 in0.0 mm
04:25 AM 61.0°F16.1°C 60.7°F15.9°C 99% 4.6 mph NW7.4 kmh NW 5.8 mph9.3 kmh 31.89 in1079.9 mb - 0.00 in0.0 mm 0.00 in0.0 mm
04:30 AM 60.8°F16.0°C 60.5°F15.8°C 99% 5.8 mph NNW9.3 kmh NNW 5.8 mph9.3 kmh 31.89 in1079.9 mb - 0.00 in0.0 mm 0.00 in0.0 mm
04:35 AM 61.0°F16.1°C 60.7°F15.9°C 99% 3.5 mph ENE5.6 kmh ENE 3.5 mph5.6 kmh 31.89 in1079.9 mb - 0.00 in0.0 mm 0.00 in0.0 mm
04:40 AM 61.0°F16.1°C 60.7°F15.9°C 99% 3.5 mph ENE5.6 kmh ENE 3.5 mph5.6 kmh 31.89 in1079.9 mb - 0.00 in0.0 mm 0.00 in0.0 mm
04:45 AM 61.0°F16.1°C 60.7°F15.9°C 99% 3.5 mph ENE5.6 kmh ENE 3.5 mph5.6 kmh 31.89 in1079.9 mb - 0.00 in0.0 mm 0.00 in0.0 mm
04:50 AM 61.0°F16.1°C 60.7°F15.9°C 99% 2.3 mph ENE3.7 kmh ENE 3.5 mph5.6 kmh 31.89 in1079.9 mb - 0.00 in0.0 mm 0.00 in0.0 mm
04:55 AM 61.0°F16.1°C 60.7°F15.9°C 99% 2.3 mph ENE3.7 kmh ENE 2.3 mph3.7 kmh 31.89 in1079.9 mb - 0.00 in0.0 mm 0.00 in0.0 mm
05:00 AM 61.0°F16.1°C 60.7°F15.9°C 99% 3.5 mph ENE5.6 kmh ENE 3.5 mph5.6 kmh 31.89 in1079.9 mb - 0.00 in0.0 mm 0.00 in0.0 mm
05:10 AM 61.0°F16.1°C 60.7°F15.9°C 99% 3.5 mph ENE5.6 kmh ENE 3.5 mph5.6 kmh 31.89 in1079.9 mb - 0.00 in0.0 mm 0.00 in0.0 mm
05:15 AM 61.0°F16.1°C 60.7°F15.9°C 99% 2.3 mph E3.7 kmh E 2.3 mph3.7 kmh 31.89 in1079.9 mb - 0.00 in0.0 mm 0.00 in0.0 mm
05:20 AM 60.8°F16.0°C 60.5°F15.8°C 99% 1.2 mph E1.9 kmh E -- 31.89 in1079.9 mb - 0.00 in0.0 mm 0.00 in0.0 mm
05:25 AM 60.8°F16.0°C 60.5°F15.8°C 99% Calm Calm 1.2 mph1.9 kmh 31.89 in1079.9 mb - 0.00 in0.0 mm 0.00 in0.0 mm
05:30 AM 60.8°F16.0°C 60.5°F15.8°C 99% 2.3 mph E3.7 kmh E 2.3 mph3.7 kmh 31.89 in1079.9 mb - 0.00 in0.0 mm 0.00 in0.0 mm
05:35 AM 60.8°F16.0°C 60.5°F15.8°C 99% 3.5 mph ENE5.6 kmh ENE 3.5 mph5.6 kmh 31.89 in1079.9 mb - 0.00 in0.0 mm 0.00 in0.0 mm
05:40 AM 61.0°F16.1°C 60.7°F15.9°C 99% 2.3 mph E3.7 kmh E 2.3 mph3.7 kmh 31.89 in1079.9 mb - 0.00 in0.0 mm 0.00 in0.0 mm
05:45 AM 61.2°F16.2°C 60.9°F16.1°C 99% 2.3 mph E3.7 kmh E 2.3 mph3.7 kmh 31.89 in1079.9 mb - 0.00 in0.0 mm 0.00 in0.0 mm
05:50 AM 61.4°F16.3°C 61.1°F16.2°C 99% 2.3 mph E3.7 kmh E 2.3 mph3.7 kmh 31.89 in1079.9 mb - 0.00 in0.0 mm 0.00 in0.0 mm
05:55 AM 61.7°F16.5°C 61.4°F16.3°C 99% 1.2 mph E1.9 kmh E 2.3 mph3.7 kmh 31.89 in1079.9 mb - 0.00 in0.0 mm 0.00 in0.0 mm
06:00 AM 62.1°F16.7°C 61.8°F16.6°C 99% 2.3 mph ENE3.7 kmh ENE 2.3 mph3.7 kmh 31.89 in1079.9 mb - 0.00 in0.0 mm 0.00 in0.0 mm
06:10 AM 62.3°F16.8°C 62.0°F16.7°C 99% 3.5 mph ENE5.6 kmh ENE 3.5 mph5.6 kmh 31.89 in1079.9 mb - 0.00 in0.0 mm 0.00 in0.0 mm
06:15 AM 62.6°F17.0°C 62.4°F16.9°C 99% 3.5 mph NE5.6 kmh NE 3.5 mph5.6 kmh 31.89 in1079.9 mb - 0.00 in0.0 mm 0.00 in0.0 mm
06:20 AM 63.2°F17.3°C 62.9°F17.2°C 99% 4.6 mph NE7.4 kmh NE 4.6 mph7.4 kmh 31.89 in1079.9 mb - 0.00 in0.0 mm 0.00 in0.0 mm
06:25 AM 63.5°F17.5°C 63.2°F17.3°C 99% 4.6 mph NW7.4 kmh NW 4.6 mph7.4 kmh 31.89 in1079.9 mb - 0.00 in0.0 mm 0.00 in0.0 mm
06:30 AM 63.9°F17.7°C 63.6°F17.6°C 99% 4.6 mph NW7.4 kmh NW 4.6 mph7.4 kmh 31.89 in1079.9 mb - 0.00 in0.0 mm 0.00 in0.0 mm
06:35 AM 64.4°F18.0°C 64.1°F17.8°C 99% 3.5 mph NW5.6 kmh NW 3.5 mph5.6 kmh 31.89 in1079.9 mb - 0.00 in0.0 mm 0.00 in0.0 mm
06:40 AM 65.7°F18.7°C 65.4°F18.6°C 99% 3.5 mph WNW5.6 kmh WNW 4.6 mph7.4 kmh 31.89 in1079.9 mb - 0.00 in0.0 mm 0.00 in0.0 mm
06:45 AM 66.5°F19.2°C 65.6°F18.7°C 97% 3.5 mph WNW5.6 kmh WNW 3.5 mph5.6 kmh 31.89 in1079.9 mb - 0.00 in0.0 mm 0.00 in0.0 mm
06:50 AM 67.1°F19.5°C 66.2°F19.0°C 97% 2.3 mph WNW3.7 kmh WNW 3.5 mph5.6 kmh 31.89 in1079.9 mb - 0.00 in0.0 mm 0.00 in0.0 mm
06:55 AM 67.9°F19.9°C 66.4°F19.1°C 95% 1.2 mph WNW1.9 kmh WNW 1.2 mph1.9 kmh 31.89 in1079.9 mb - 0.00 in0.0 mm 0.00 in0.0 mm
07:00 AM 68.6°F20.3°C 66.8°F19.3°C 94% Calm Calm 1.2 mph1.9 kmh 31.89 in1079.9 mb - 0.00 in0.0 mm 0.00 in0.0 mm
07:10 AM 69.1°F20.6°C 67.3°F19.6°C 94% 1.2 mph WNW1.9 kmh WNW 2.3 mph3.7 kmh 31.89 in1079.9 mb - 0.00 in0.0 mm 0.00 in0.0 mm
07:15 AM 69.3°F20.7°C 67.8°F19.9°C 95% 2.3 mph WNW3.7 kmh WNW 2.3 mph3.7 kmh 31.89 in1079.9 mb - 0.00 in0.0 mm 0.00 in0.0 mm
07:20 AM 70.4°F21.3°C 68.0°F20.0°C 92% Calm Calm -- 31.89 in1079.9 mb - 0.00 in0.0 mm 0.00 in0.0 mm
07:25 AM 70.9°F21.6°C 68.1°F20.1°C 91% Calm Calm -- 31.89 in1079.9 mb - 0.00 in0.0 mm 0.00 in0.0 mm
07:30 AM 71.2°F21.8°C 68.5°F20.3°C 91% 1.2 mph W1.9 kmh W 1.2 mph1.9 kmh 31.89 in1079.9 mb - 0.00 in0.0 mm 0.00 in0.0 mm
07:35 AM 71.4°F21.9°C 68.3°F20.2°C 90% 1.2 mph W1.9 kmh W 1.2 mph1.9 kmh 31.89 in1079.9 mb - 0.00 in0.0 mm 0.00 in0.0 mm
07:40 AM 72.0°F22.2°C 68.9°F20.5°C 90% 1.2 mph W1.9 kmh W 2.3 mph3.7 kmh 31.89 in1079.9 mb - 0.00 in0.0 mm 0.00 in0.0 mm
07:45 AM 72.7°F22.6°C 70.2°F21.2°C 92% 1.2 mph W1.9 kmh W 1.2 mph1.9 kmh 31.89 in1079.9 mb - 0.00 in0.0 mm 0.00 in0.0 mm
07:50 AM 72.7°F22.6°C 69.2°F20.7°C 89% 1.2 mph W1.9 kmh W 2.3 mph3.7 kmh 31.89 in1079.9 mb - 0.00 in0.0 mm 0.00 in0.0 mm
07:55 AM 73.4°F23.0°C 69.9°F21.1°C 89% 1.2 mph W1.9 kmh W 1.2 mph1.9 kmh 31.89 in1079.9 mb - 0.00 in0.0 mm 0.00 in0.0 mm
08:00 AM 74.1°F23.4°C 70.6°F21.4°C 89% 1.2 mph WNW1.9 kmh WNW 1.2 mph1.9 kmh 31.89 in1079.9 mb - 0.00 in0.0 mm 0.00 in0.0 mm
08:10 AM 73.8°F23.2°C 69.0°F20.6°C 85% 2.3 mph ESE3.7 kmh ESE 2.3 mph3.7 kmh 31.89 in1079.9 mb - 0.00 in0.0 mm 0.00 in0.0 mm
08:15 AM 74.1°F23.4°C 68.9°F20.5°C 84% 2.3 mph ESE3.7 kmh ESE 2.3 mph3.7 kmh 31.89 in1079.9 mb - 0.00 in0.0 mm 0.00 in0.0 mm
09:20 AM 74.1°F23.4°C 68.9°F20.5°C 84% 2.3 mph ESE3.7 kmh ESE 2.3 mph3.7 kmh 31.89 in1079.9 mb - 0.00 in0.0 mm 0.00 in0.0 mm
09:25 AM 76.7°F24.8°C 67.0°F19.4°C 72% 2.3 mph ESE3.7 kmh ESE 3.5 mph5.6 kmh 31.89 in1079.9 mb - 0.00 in0.0 mm 0.00 in0.0 mm
09:30 AM 76.9°F24.9°C 68.0°F20.0°C 74% 2.3 mph SE3.7 kmh SE 2.3 mph3.7 kmh 31.89 in1079.9 mb - 0.00 in0.0 mm 0.00 in0.0 mm
09:35 AM 77.7°F25.4°C 68.7°F20.4°C 74% 1.2 mph ESE1.9 kmh ESE 2.3 mph3.7 kmh 31.89 in1079.9 mb - 0.00 in0.0 mm 0.00 in0.0 mm
09:40 AM 77.5°F25.3°C 68.6°F20.3°C 74% 2.3 mph SE3.7 kmh SE 3.5 mph5.6 kmh 31.89 in1079.9 mb - 0.00 in0.0 mm 0.00 in0.0 mm
09:45 AM 77.6°F25.3°C 69.8°F21.0°C 77% 2.3 mph SE3.7 kmh SE 2.3 mph3.7 kmh 31.89 in1079.9 mb - 0.00 in0.0 mm 0.00 in0.0 mm
09:50 AM 77.7°F25.4°C 69.1°F20.6°C 75% 2.3 mph SE3.7 kmh SE 2.3 mph3.7 kmh 31.89 in1079.9 mb - 0.00 in0.0 mm 0.00 in0.0 mm
09:55 AM 77.6°F25.3°C 69.8°F21.0°C 77% 2.3 mph ESE3.7 kmh ESE 2.3 mph3.7 kmh 31.89 in1079.9 mb - 0.00 in0.0 mm 0.00 in0.0 mm
10:00 AM 78.3°F25.7°C 70.1°F21.2°C 76% 2.3 mph SE3.7 kmh SE 4.6 mph7.4 kmh 31.89 in1079.9 mb - 0.00 in0.0 mm 0.00 in0.0 mm
10:10 AM 78.1°F25.6°C 69.2°F20.7°C 74% 3.5 mph ESE5.6 kmh ESE 3.5 mph5.6 kmh 31.89 in1079.9 mb - 0.00 in0.0 mm 0.00 in0.0 mm
10:15 AM 78.3°F25.7°C 69.7°F20.9°C 75% 2.3 mph SE3.7 kmh SE 3.5 mph5.6 kmh 31.89 in1079.9 mb - 0.00 in0.0 mm 0.00 in0.0 mm
10:20 AM 78.9°F26.1°C 70.3°F21.3°C 75% 2.3 mph SE3.7 kmh SE 2.3 mph3.7 kmh 31.89 in1079.9 mb - 0.00 in0.0 mm 0.00 in0.0 mm
10:25 AM 78.5°F25.8°C 69.1°F20.6°C 73% 2.3 mph SE3.7 kmh SE 3.5 mph5.6 kmh 31.89 in1079.9 mb - 0.00 in0.0 mm 0.00 in0.0 mm
10:30 AM 78.5°F25.8°C 69.2°F20.7°C 73% 1.2 mph SE1.9 kmh SE 2.3 mph3.7 kmh 31.89 in1079.9 mb - 0.00 in0.0 mm 0.00 in0.0 mm
10:35 AM 78.8°F26.0°C 69.4°F20.8°C 73% 2.3 mph SE3.7 kmh SE 2.3 mph3.7 kmh 31.89 in1079.9 mb - 0.00 in0.0 mm 0.00 in0.0 mm
10:40 AM 79.4°F26.3°C 69.1°F20.6°C 71% 3.5 mph SE5.6 kmh SE 3.5 mph5.6 kmh 31.89 in1079.9 mb - 0.00 in0.0 mm 0.00 in0.0 mm
10:45 AM 78.9°F26.1°C 69.5°F20.8°C 73% 3.5 mph SSE5.6 kmh SSE 3.5 mph5.6 kmh 31.89 in1079.9 mb - 0.00 in0.0 mm 0.00 in0.0 mm
10:50 AM 79.0°F26.1°C 68.8°F20.4°C 71% 3.5 mph SE5.6 kmh SE 3.5 mph5.6 kmh 31.89 in1079.9 mb - 0.00 in0.0 mm 0.00 in0.0 mm
10:55 AM 79.2°F26.2°C 69.8°F21.0°C 73% 3.5 mph SSE5.6 kmh SSE 3.5 mph5.6 kmh 31.89 in1079.9 mb - 0.00 in0.0 mm 0.00 in0.0 mm
11:00 AM 79.5°F26.4°C 70.1°F21.2°C 73% 3.5 mph S5.6 kmh S 4.6 mph7.4 kmh 31.89 in1079.9 mb - 0.00 in0.0 mm 0.00 in0.0 mm
11:10 AM 79.5°F26.4°C 70.5°F21.4°C 74% 3.5 mph S5.6 kmh S 4.6 mph7.4 kmh 31.89 in1079.9 mb - 0.00 in0.0 mm 0.00 in0.0 mm
11:15 AM 79.0°F26.1°C 70.0°F21.1°C 74% 3.5 mph SE5.6 kmh SE 4.6 mph7.4 kmh 31.89 in1079.9 mb - 0.00 in0.0 mm 0.00 in0.0 mm
11:20 AM 79.4°F26.3°C 70.0°F21.1°C 73% 4.6 mph S7.4 kmh S 5.8 mph9.3 kmh 31.89 in1079.9 mb - 0.00 in0.0 mm 0.00 in0.0 mm
11:25 AM 79.4°F26.3°C 69.6°F20.9°C 72% 4.6 mph SSE7.4 kmh SSE 5.8 mph9.3 kmh 31.89 in1079.9 mb - 0.00 in0.0 mm 0.00 in0.0 mm
11:30 AM 79.4°F26.3°C 70.4°F21.3°C 74% 4.6 mph S7.4 kmh S 5.8 mph9.3 kmh 31.89 in1079.9 mb - 0.00 in0.0 mm 0.00 in0.0 mm
11:35 AM 79.4°F26.3°C 70.4°F21.3°C 74% 3.5 mph S5.6 kmh S 3.5 mph5.6 kmh 31.89 in1079.9 mb - 0.00 in0.0 mm 0.00 in0.0 mm
11:40 AM 80.2°F26.8°C 70.7°F21.5°C 73% 3.5 mph S5.6 kmh S 4.6 mph7.4 kmh 31.89 in1079.9 mb - 0.00 in0.0 mm 0.00 in0.0 mm
11:45 AM 80.3°F26.8°C 70.4°F21.3°C 72% 2.3 mph SSW3.7 kmh SSW 2.3 mph3.7 kmh 31.89 in1079.9 mb - 0.00 in0.0 mm 0.00 in0.0 mm
11:50 AM 80.3°F26.8°C 69.6°F20.9°C 70% 3.5 mph SSE5.6 kmh SSE 3.5 mph5.6 kmh 31.89 in1079.9 mb - 0.00 in0.0 mm 0.00 in0.0 mm
11:55 AM 81.2°F27.3°C 70.5°F21.4°C 70% 3.5 mph SE5.6 kmh SE 2.3 mph3.7 kmh 31.89 in1079.9 mb - 0.00 in0.0 mm 0.00 in0.0 mm
12:00 PM 81.2°F27.3°C 70.0°F21.1°C 69% 2.3 mph S3.7 kmh S 3.5 mph5.6 kmh 31.89 in1079.9 mb - 0.00 in0.0 mm 0.00 in0.0 mm
12:10 PM 80.7°F27.1°C 69.6°F20.9°C 69% 4.6 mph S7.4 kmh S 4.6 mph7.4 kmh 31.89 in1079.9 mb - 0.00 in0.0 mm 0.00 in0.0 mm
12:15 PM 80.6°F27.0°C 69.5°F20.8°C 69% 3.5 mph S5.6 kmh S 3.5 mph5.6 kmh 31.89 in1079.9 mb - 0.00 in0.0 mm 0.00 in0.0 mm
12:20 PM 80.6°F27.0°C 69.5°F20.8°C 69% 3.5 mph S5.6 kmh S 4.6 mph7.4 kmh 31.89 in1079.9 mb - 0.00 in0.0 mm 0.00 in0.0 mm
12:25 PM 81.0°F27.2°C 69.4°F20.8°C 68% 4.6 mph S7.4 kmh S 4.6 mph7.4 kmh 31.89 in1079.9 mb - 0.00 in0.0 mm 0.00 in0.0 mm
12:30 PM 81.2°F27.3°C 70.1°F21.2°C 69% 3.5 mph S5.6 kmh S 4.6 mph7.4 kmh 31.89 in1079.9 mb - 0.00 in0.0 mm 0.00 in0.0 mm
12:35 PM 81.0°F27.2°C 69.4°F20.8°C 68% 3.5 mph S5.6 kmh S 5.8 mph9.3 kmh 31.89 in1079.9 mb - 0.00 in0.0 mm 0.00 in0.0 mm
12:40 PM 81.0°F27.2°C 69.8°F21.0°C 69% 4.6 mph S7.4 kmh S 5.8 mph9.3 kmh 31.89 in1079.9 mb - 0.00 in0.0 mm 0.00 in0.0 mm
12:45 PM 82.1°F27.8°C 70.5°F21.4°C 68% 4.6 mph S7.4 kmh S 5.8 mph9.3 kmh 31.89 in1079.9 mb - 0.00 in0.0 mm 0.00 in0.0 mm
12:50 PM 81.2°F27.3°C 69.6°F20.9°C 68% 4.6 mph SSE7.4 kmh SSE 5.8 mph9.3 kmh 31.89 in1079.9 mb - 0.00 in0.0 mm 0.00 in0.0 mm
12:55 PM 81.5°F27.5°C 69.9°F21.1°C 68% 4.6 mph SSE7.4 kmh SSE 4.6 mph7.4 kmh 31.89 in1079.9 mb - 0.00 in0.0 mm 0.00 in0.0 mm
01:00 PM 82.0°F27.8°C 71.2°F21.8°C 70% 3.5 mph SSW5.6 kmh SSW 4.6 mph7.4 kmh 31.89 in1079.9 mb - 0.00 in0.0 mm 0.00 in0.0 mm
01:15 PM 81.3°F27.4°C 70.1°F21.2°C 69% 4.6 mph SE7.4 kmh SE 5.8 mph9.3 kmh 31.89 in1079.9 mb - 0.00 in0.0 mm 0.00 in0.0 mm
01:20 PM 81.5°F27.5°C 69.9°F21.1°C 68% 4.6 mph S7.4 kmh S 5.8 mph9.3 kmh 31.89 in1079.9 mb - 0.00 in0.0 mm 0.00 in0.0 mm
01:25 PM 80.9°F27.2°C 69.8°F21.0°C 69% 4.6 mph SSW7.4 kmh SSW 5.8 mph9.3 kmh 31.89 in1079.9 mb - 0.00 in0.0 mm 0.00 in0.0 mm
01:30 PM 81.3°F27.4°C 70.1°F21.2°C 69% 4.6 mph S7.4 kmh S 5.8 mph9.3 kmh 31.89 in1079.9 mb - 0.00 in0.0 mm 0.00 in0.0 mm
01:35 PM 81.2°F27.3°C 70.1°F21.2°C 69% 3.5 mph S5.6 kmh S 4.6 mph7.4 kmh 31.89 in1079.9 mb - 0.00 in0.0 mm 0.00 in0.0 mm
01:40 PM 81.9°F27.7°C 70.7°F21.5°C 69% 3.5 mph S5.6 kmh S 4.6 mph7.4 kmh 31.89 in1079.9 mb - 0.00 in0.0 mm 0.00 in0.0 mm
01:45 PM 82.0°F27.8°C 70.8°F21.6°C 69% 3.5 mph S5.6 kmh S 4.6 mph7.4 kmh 31.89 in1079.9 mb - 0.00 in0.0 mm 0.00 in0.0 mm
01:50 PM 82.1°F27.8°C 70.5°F21.4°C 68% 3.5 mph S5.6 kmh S 4.6 mph7.4 kmh 31.89 in1079.9 mb - 0.00 in0.0 mm 0.00 in0.0 mm
01:55 PM 81.7°F27.6°C 70.1°F21.2°C 68% 4.6 mph SW7.4 kmh SW 5.8 mph9.3 kmh 31.89 in1079.9 mb - 0.00 in0.0 mm 0.00 in0.0 mm
02:00 PM 81.3°F27.4°C 70.1°F21.2°C 69% 4.6 mph SSW7.4 kmh SSW 4.6 mph7.4 kmh 31.89 in1079.9 mb - 0.00 in0.0 mm 0.00 in0.0 mm
02:10 PM 81.3°F27.4°C 71.4°F21.9°C 72% 4.6 mph S7.4 kmh S 5.8 mph9.3 kmh 31.89 in1079.9 mb - 0.00 in0.0 mm 0.00 in0.0 mm
02:15 PM 81.3°F27.4°C 70.6°F21.4°C 70% 5.8 mph SSW9.3 kmh SSW 5.8 mph9.3 kmh 31.89 in1079.9 mb - 0.00 in0.0 mm 0.00 in0.0 mm
02:20 PM 81.2°F27.3°C 70.1°F21.2°C 69% 4.6 mph S7.4 kmh S 4.6 mph7.4 kmh 31.89 in1079.9 mb - 0.00 in0.0 mm 0.00 in0.0 mm
02:25 PM 81.6°F27.6°C 71.3°F21.8°C 71% 4.6 mph SSW7.4 kmh SSW 5.8 mph9.3 kmh 31.89 in1079.9 mb - 0.00 in0.0 mm 0.00 in0.0 mm
02:30 PM 81.6°F27.6°C 70.9°F21.6°C 70% 3.5 mph SSW5.6 kmh SSW 4.6 mph7.4 kmh 31.89 in1079.9 mb - 0.00 in0.0 mm 0.00 in0.0 mm
02:35 PM 81.7°F27.6°C 71.0°F21.7°C 70% 4.6 mph SSW7.4 kmh SSW 4.6 mph7.4 kmh 31.89 in1079.9 mb - 0.00 in0.0 mm 0.00 in0.0 mm
02:40 PM 81.6°F27.6°C 71.2°F21.8°C 71% 3.5 mph SE5.6 kmh SE 3.5 mph5.6 kmh 31.83 in1077.9 mb - 0.00 in0.0 mm 0.00 in0.0 mm
02:45 PM 81.7°F27.6°C 71.4°F21.9°C 71% 4.6 mph S7.4 kmh S 4.6 mph7.4 kmh 31.83 in1077.9 mb - 0.00 in0.0 mm 0.00 in0.0 mm
02:50 PM 81.9°F27.7°C 71.9°F22.2°C 72% 3.5 mph S5.6 kmh S 4.6 mph7.4 kmh 31.75 in1075.2 mb - 0.00 in0.0 mm 0.00 in0.0 mm
02:55 PM 81.6°F27.6°C 71.3°F21.8°C 71% 3.5 mph S5.6 kmh S 4.6 mph7.4 kmh 31.70 in1073.5 mb - 0.00 in0.0 mm 0.00 in0.0 mm
03:00 PM 82.1°F27.8°C 71.7°F22.1°C 71% 3.5 mph S5.6 kmh S 4.6 mph7.4 kmh 31.70 in1073.5 mb - 0.00 in0.0 mm 0.00 in0.0 mm
03:10 PM 82.8°F28.2°C 72.4°F22.4°C 71% 2.3 mph S3.7 kmh S 4.6 mph7.4 kmh 31.52 in1067.4 mb - 0.00 in0.0 mm 0.00 in0.0 mm
03:15 PM 82.3°F27.9°C 71.9°F22.2°C 71% 3.5 mph SW5.6 kmh SW 4.6 mph7.4 kmh 31.37 in1062.3 mb - 0.00 in0.0 mm 0.00 in0.0 mm
03:20 PM 82.4°F28.0°C 72.0°F22.2°C 71% 3.5 mph S5.6 kmh S 3.5 mph5.6 kmh 31.37 in1062.3 mb - 0.00 in0.0 mm 0.00 in0.0 mm
03:25 PM 83.0°F28.3°C 72.2°F22.3°C 70% 3.5 mph SSW5.6 kmh SSW 3.5 mph5.6 kmh 31.32 in1060.6 mb - 0.00 in0.0 mm 0.00 in0.0 mm
03:30 PM 82.8°F28.2°C 72.0°F22.2°C 70% 3.5 mph S5.6 kmh S 3.5 mph5.6 kmh 31.20 in1056.6 mb - 0.00 in0.0 mm 0.00 in0.0 mm
03:35 PM 82.6°F28.1°C 71.8°F22.1°C 70% 2.3 mph SW3.7 kmh SW 3.5 mph5.6 kmh 31.20 in1056.6 mb - 0.00 in0.0 mm 0.00 in0.0 mm
03:40 PM 82.8°F28.2°C 72.0°F22.2°C 70% 3.5 mph SW5.6 kmh SW 3.5 mph5.6 kmh 31.09 in1052.8 mb - 0.00 in0.0 mm 0.00 in0.0 mm
03:45 PM 82.2°F27.9°C 72.3°F22.4°C 72% 3.5 mph S5.6 kmh S 4.6 mph7.4 kmh 31.09 in1052.8 mb - 0.00 in0.0 mm 0.00 in0.0 mm
03:50 PM 82.6°F28.1°C 72.2°F22.3°C 71% 3.5 mph SW5.6 kmh SW 3.5 mph5.6 kmh 30.97 in1048.8 mb - 0.00 in0.0 mm 0.00 in0.0 mm
03:55 PM 82.7°F28.2°C 72.8°F22.7°C 72% 3.5 mph SSW5.6 kmh SSW 3.5 mph5.6 kmh 30.96 in1048.4 mb - 0.00 in0.0 mm 0.00 in0.0 mm
04:00 PM 82.4°F28.0°C 72.9°F22.7°C 73% 3.5 mph S5.6 kmh S 3.5 mph5.6 kmh 30.96 in1048.4 mb - 0.00 in0.0 mm 0.00 in0.0 mm
04:10 PM 82.4°F28.0°C 71.6°F22.0°C 70% 3.5 mph SSW5.6 kmh SSW 3.5 mph5.6 kmh 30.79 in1042.7 mb - 0.00 in0.0 mm 0.00 in0.0 mm
04:15 PM 82.6°F28.1°C 71.8°F22.1°C 70% 3.5 mph SSW5.6 kmh SSW 4.6 mph7.4 kmh 30.61 in1036.6 mb - 0.00 in0.0 mm 0.00 in0.0 mm
04:20 PM 82.5°F28.1°C 72.1°F22.3°C 71% 2.3 mph S3.7 kmh S 3.5 mph5.6 kmh 30.61 in1036.6 mb - 0.00 in0.0 mm 0.00 in0.0 mm
04:25 PM 82.4°F28.0°C 71.6°F22.0°C 70% 3.5 mph SSW5.6 kmh SSW 3.5 mph5.6 kmh 30.61 in1036.6 mb - 0.00 in0.0 mm 0.00 in0.0 mm
04:30 PM 82.2°F27.9°C 72.3°F22.4°C 72% 2.3 mph SW3.7 kmh SW 2.3 mph3.7 kmh 30.53 in1033.9 mb - 0.00 in0.0 mm 0.00 in0.0 mm
04:35 PM 82.1°F27.8°C 72.2°F22.3°C 72% 2.3 mph SW3.7 kmh SW 3.5 mph5.6 kmh 30.53 in1033.9 mb - 0.00 in0.0 mm 0.00 in0.0 mm
04:40 PM 82.2°F27.9°C 71.8°F22.1°C 71% 2.3 mph SSW3.7 kmh SSW 2.3 mph3.7 kmh 30.44 in1030.8 mb - 0.00 in0.0 mm 0.00 in0.0 mm
04:45 PM 82.1°F27.8°C 71.4°F21.9°C 70% 2.3 mph SW3.7 kmh SW 2.3 mph3.7 kmh 30.44 in1030.8 mb - 0.00 in0.0 mm 0.00 in0.0 mm
04:50 PM 82.1°F27.8°C 71.3°F21.8°C 70% 2.3 mph S3.7 kmh S 2.3 mph3.7 kmh 30.43 in1030.5 mb - 0.00 in0.0 mm 0.00 in0.0 mm
04:55 PM 81.9°F27.7°C 72.0°F22.2°C 72% 2.3 mph S3.7 kmh S 2.3 mph3.7 kmh 30.41 in1029.8 mb - 0.00 in0.0 mm 0.00 in0.0 mm
05:00 PM 81.9°F27.7°C 72.0°F22.2°C 72% 2.3 mph SW3.7 kmh SW 2.3 mph3.7 kmh 30.41 in1029.8 mb - 0.00 in0.0 mm 0.00 in0.0 mm
05:10 PM 81.5°F27.5°C 71.6°F22.0°C 72% 1.2 mph S1.9 kmh S 2.3 mph3.7 kmh 30.39 in1029.1 mb - 0.00 in0.0 mm 0.00 in0.0 mm
05:15 PM 81.8°F27.7°C 71.9°F22.2°C 72% 2.3 mph S3.7 kmh S 3.5 mph5.6 kmh 30.39 in1029.1 mb - 0.00 in0.0 mm 0.00 in0.0 mm
05:20 PM 81.0°F27.2°C 71.5°F21.9°C 73% 1.2 mph S1.9 kmh S 2.3 mph3.7 kmh 30.39 in1029.1 mb - 0.00 in0.0 mm 0.00 in0.0 mm
05:25 PM 80.3°F26.8°C 69.7°F20.9°C 70% Calm Calm -- 30.39 in1029.1 mb - 0.00 in0.0 mm 0.00 in0.0 mm
05:30 PM 81.2°F27.3°C 68.3°F20.2°C 65% 1.2 mph SSE1.9 kmh SSE 1.2 mph1.9 kmh 30.39 in1029.1 mb - 0.00 in0.0 mm 0.00 in0.0 mm
05:35 PM 81.3°F27.4°C 64.1°F17.8°C 56% 2.3 mph SE3.7 kmh SE 2.3 mph3.7 kmh 30.39 in1029.1 mb - 0.00 in0.0 mm 0.00 in0.0 mm
05:40 PM 81.3°F27.4°C 64.1°F17.8°C 56% 1.2 mph SSE1.9 kmh SSE 1.2 mph1.9 kmh 30.52 in1033.5 mb - 0.00 in0.0 mm 0.00 in0.0 mm
05:45 PM 81.0°F27.2°C 64.8°F18.2°C 58% 1.2 mph SSE1.9 kmh SSE 1.2 mph1.9 kmh 30.52 in1033.5 mb - 0.00 in0.0 mm 0.00 in0.0 mm
05:50 PM 81.2°F27.3°C 63.5°F17.5°C 55% Calm Calm 1.2 mph1.9 kmh 30.63 in1037.3 mb - 0.00 in0.0 mm 0.00 in0.0 mm
05:55 PM 81.2°F27.3°C 62.4°F16.9°C 53% 2.3 mph SE3.7 kmh SE 2.3 mph3.7 kmh 30.65 in1037.9 mb - 0.00 in0.0 mm 0.00 in0.0 mm
06:00 PM 81.2°F27.3°C 63.0°F17.2°C 54% 2.3 mph SE3.7 kmh SE 2.3 mph3.7 kmh 30.65 in1037.9 mb - 0.00 in0.0 mm 0.00 in0.0 mm
06:10 PM 81.8°F27.7°C 63.6°F17.6°C 54% Calm Calm -- 30.80 in1043.0 mb - 0.00 in0.0 mm 0.00 in0.0 mm
06:15 PM 81.2°F27.3°C 63.5°F17.5°C 55% 1.2 mph SE1.9 kmh SE 2.3 mph3.7 kmh 30.86 in1045.0 mb - 0.00 in0.0 mm 0.00 in0.0 mm
06:20 PM 80.8°F27.1°C 63.1°F17.3°C 55% 1.2 mph SSE1.9 kmh SSE 1.2 mph1.9 kmh 30.86 in1045.0 mb - 0.00 in0.0 mm 0.00 in0.0 mm
06:25 PM 80.4°F26.9°C 63.2°F17.3°C 56% Calm Calm -- 30.86 in1045.0 mb - 0.00 in0.0 mm 0.00 in0.0 mm
06:30 PM 80.0°F26.7°C 63.4°F17.4°C 57% Calm Calm -- 31.02 in1050.5 mb - 0.00 in0.0 mm 0.00 in0.0 mm
06:35 PM 79.5°F26.4°C 64.4°F18.0°C 60% Calm Calm -- 31.02 in1050.5 mb - 0.00 in0.0 mm 0.00 in0.0 mm
06:40 PM 79.2°F26.2°C 64.6°F18.1°C 61% Calm Calm -- 31.07 in1052.2 mb - 0.00 in0.0 mm 0.00 in0.0 mm
06:45 PM 78.7°F25.9°C 64.5°F18.1°C 62% Calm Calm 1.2 mph1.9 kmh 31.07 in1052.2 mb - 0.00 in0.0 mm 0.00 in0.0 mm
06:50 PM 78.2°F25.7°C 65.0°F18.3°C 64% Calm Calm -- 31.16 in1055.2 mb - 0.00 in0.0 mm 0.00 in0.0 mm
06:55 PM 77.7°F25.4°C 65.0°F18.3°C 65% Calm Calm -- 31.16 in1055.2 mb - 0.00 in0.0 mm 0.00 in0.0 mm
07:00 PM 77.2°F25.1°C 65.4°F18.6°C 67% Calm Calm -- 31.16 in1055.2 mb - 0.00 in0.0 mm 0.00 in0.0 mm
07:10 PM 76.2°F24.6°C 65.3°F18.5°C 69% Calm Calm -- 31.33 in1061.0 mb - 0.00 in0.0 mm 0.00 in0.0 mm
07:15 PM 75.7°F24.3°C 65.2°F18.4°C 70% Calm Calm 1.2 mph1.9 kmh 31.51 in1067.1 mb - 0.00 in0.0 mm 0.00 in0.0 mm
07:20 PM 74.6°F23.7°C 65.7°F18.7°C 74% 2.3 mph ESE3.7 kmh ESE 3.5 mph5.6 kmh 31.51 in1067.1 mb - 0.00 in0.0 mm 0.00 in0.0 mm
07:25 PM 73.8°F23.2°C 65.4°F18.6°C 75% 3.5 mph ESE5.6 kmh ESE 3.5 mph5.6 kmh 31.51 in1067.1 mb - 0.00 in0.0 mm 0.00 in0.0 mm
07:30 PM 73.1°F22.8°C 65.5°F18.6°C 77% 3.5 mph SE5.6 kmh SE 3.5 mph5.6 kmh 31.80 in1076.9 mb - 0.00 in0.0 mm 0.00 in0.0 mm
07:35 PM 72.7°F22.6°C 65.1°F18.4°C 77% 3.5 mph ESE5.6 kmh ESE 3.5 mph5.6 kmh 31.80 in1076.9 mb - 0.00 in0.0 mm 0.00 in0.0 mm
07:40 PM 72.3°F22.4°C 65.0°F18.3°C 78% 2.3 mph SE3.7 kmh SE 2.3 mph3.7 kmh 31.80 in1076.9 mb - 0.00 in0.0 mm 0.00 in0.0 mm
07:45 PM 72.0°F22.2°C 65.1°F18.4°C 79% 2.3 mph SE3.7 kmh SE 3.5 mph5.6 kmh 31.80 in1076.9 mb - 0.00 in0.0 mm 0.00 in0.0 mm
07:50 PM 71.6°F22.0°C 65.1°F18.4°C 80% 2.3 mph ESE3.7 kmh ESE 3.5 mph5.6 kmh 31.80 in1076.9 mb - 0.00 in0.0 mm 0.00 in0.0 mm
07:55 PM 71.1°F21.7°C 65.0°F18.3°C 81% 3.5 mph ESE5.6 kmh ESE 3.5 mph5.6 kmh 31.80 in1076.9 mb - 0.00 in0.0 mm 0.00 in0.0 mm
08:00 PM 70.9°F21.6°C 64.8°F18.2°C 81% 3.5 mph ESE5.6 kmh ESE 4.6 mph7.4 kmh 31.80 in1076.9 mb - 0.00 in0.0 mm 0.00 in0.0 mm
08:10 PM 70.7°F21.5°C 64.6°F18.1°C 81% 3.5 mph ESE5.6 kmh ESE 4.6 mph7.4 kmh 31.80 in1076.9 mb - 0.00 in0.0 mm 0.00 in0.0 mm
08:15 PM 70.5°F21.4°C 64.4°F18.0°C 81% 4.6 mph ESE7.4 kmh ESE 4.6 mph7.4 kmh 31.80 in1076.9 mb - 0.00 in0.0 mm 0.00 in0.0 mm
08:20 PM 70.4°F21.3°C 64.6°F18.1°C 82% 3.5 mph ESE5.6 kmh ESE 4.6 mph7.4 kmh 31.80 in1076.9 mb - 0.00 in0.0 mm 0.00 in0.0 mm
08:25 PM 69.9°F21.1°C 64.5°F18.1°C 83% 3.5 mph ESE5.6 kmh ESE 3.5 mph5.6 kmh 31.80 in1076.9 mb - 0.00 in0.0 mm 0.00 in0.0 mm
08:30 PM 69.6°F20.9°C 64.2°F17.9°C 83% 3.5 mph ESE5.6 kmh ESE 4.6 mph7.4 kmh 31.80 in1076.9 mb - 0.00 in0.0 mm 0.00 in0.0 mm
08:35 PM 69.6°F20.9°C 64.2°F17.9°C 83% 4.6 mph E7.4 kmh E 4.6 mph7.4 kmh 31.80 in1076.9 mb - 0.00 in0.0 mm 0.00 in0.0 mm
08:40 PM 69.5°F20.8°C 64.1°F17.8°C 83% 4.6 mph E7.4 kmh E 4.6 mph7.4 kmh 31.80 in1076.9 mb - 0.00 in0.0 mm 0.00 in0.0 mm
08:45 PM 69.5°F20.8°C 64.1°F17.8°C 83% 4.6 mph SE7.4 kmh SE 4.6 mph7.4 kmh 31.80 in1076.9 mb - 0.00 in0.0 mm 0.00 in0.0 mm
08:50 PM 69.3°F20.7°C 63.9°F17.7°C 83% 2.3 mph SSE3.7 kmh SSE 3.5 mph5.6 kmh 31.80 in1076.9 mb - 0.00 in0.0 mm 0.00 in0.0 mm
08:55 PM 69.1°F20.6°C 63.7°F17.6°C 83% 3.5 mph SSE5.6 kmh SSE 4.6 mph7.4 kmh 31.80 in1076.9 mb - 0.00 in0.0 mm 0.00 in0.0 mm
09:00 PM 68.9°F20.5°C 63.5°F17.5°C 83% 3.5 mph SE5.6 kmh SE 4.6 mph7.4 kmh 31.80 in1076.9 mb - 0.00 in0.0 mm 0.00 in0.0 mm
09:10 PM 68.7°F20.4°C 63.3°F17.4°C 83% 2.3 mph SSE3.7 kmh SSE 3.5 mph5.6 kmh 31.80 in1076.9 mb - 0.00 in0.0 mm 0.00 in0.0 mm
09:15 PM 68.6°F20.3°C 63.6°F17.6°C 84% 2.3 mph S3.7 kmh S 2.3 mph3.7 kmh 31.80 in1076.9 mb - 0.00 in0.0 mm 0.00 in0.0 mm
09:20 PM 68.4°F20.2°C 63.7°F17.6°C 85% 2.3 mph SSE3.7 kmh SSE 2.3 mph3.7 kmh 31.80 in1076.9 mb - 0.00 in0.0 mm 0.00 in0.0 mm
09:25 PM 68.2°F20.1°C 63.8°F17.7°C 86% 1.2 mph SSE1.9 kmh SSE 2.3 mph3.7 kmh 31.80 in1076.9 mb - 0.00 in0.0 mm 0.00 in0.0 mm
09:30 PM 67.8°F19.9°C 63.8°F17.7°C 87% 2.3 mph S3.7 kmh S 2.3 mph3.7 kmh 31.80 in1076.9 mb - 0.00 in0.0 mm 0.00 in0.0 mm
09:35 PM 67.7°F19.8°C 64.0°F17.8°C 88% 2.3 mph S3.7 kmh S 3.5 mph5.6 kmh 31.80 in1076.9 mb - 0.00 in0.0 mm 0.00 in0.0 mm
09:40 PM 67.5°F19.7°C 64.1°F17.8°C 89% 2.3 mph S3.7 kmh S 2.3 mph3.7 kmh 31.80 in1076.9 mb - 0.00 in0.0 mm 0.00 in0.0 mm
09:45 PM 67.2°F19.6°C 64.2°F17.9°C 90% 3.5 mph S5.6 kmh S 3.5 mph5.6 kmh 31.80 in1076.9 mb - 0.00 in0.0 mm 0.00 in0.0 mm
09:50 PM 67.1°F19.5°C 64.0°F17.8°C 90% 3.5 mph SSW5.6 kmh SSW 4.6 mph7.4 kmh 31.80 in1076.9 mb - 0.00 in0.0 mm 0.00 in0.0 mm
09:55 PM 66.8°F19.3°C 64.1°F17.8°C 91% 2.3 mph S3.7 kmh S 2.3 mph3.7 kmh 31.80 in1076.9 mb - 0.00 in0.0 mm 0.00 in0.0 mm
10:00 PM 66.7°F19.3°C 64.3°F17.9°C 92% 2.3 mph S3.7 kmh S 2.3 mph3.7 kmh 31.80 in1076.9 mb - 0.00 in0.0 mm 0.00 in0.0 mm
10:10 PM 66.2°F19.0°C 64.1°F17.8°C 93% 3.5 mph S5.6 kmh S 3.5 mph5.6 kmh 31.80 in1076.9 mb - 0.00 in0.0 mm 0.00 in0.0 mm
10:15 PM 66.2°F19.0°C 64.1°F17.8°C 93% 3.5 mph SSW5.6 kmh SSW 3.5 mph5.6 kmh 31.80 in1076.9 mb - 0.00 in0.0 mm 0.00 in0.0 mm
10:20 PM 66.0°F18.9°C 64.3°F17.9°C 94% 2.3 mph S3.7 kmh S 2.3 mph3.7 kmh 31.80 in1076.9 mb - 0.00 in0.0 mm 0.00 in0.0 mm
10:25 PM 66.0°F18.9°C 64.2°F17.9°C 94% 2.3 mph S3.7 kmh S 2.3 mph3.7 kmh 31.80 in1076.9 mb - 0.00 in0.0 mm 0.00 in0.0 mm
10:30 PM 65.9°F18.8°C 64.1°F17.8°C 94% 2.3 mph S3.7 kmh S 2.3 mph3.7 kmh 31.80 in1076.9 mb - 0.00 in0.0 mm 0.00 in0.0 mm
10:35 PM 65.8°F18.8°C 64.3°F17.9°C 95% 2.3 mph SSE3.7 kmh SSE 2.3 mph3.7 kmh 31.80 in1076.9 mb - 0.00 in0.0 mm 0.00 in0.0 mm
10:40 PM 65.7°F18.7°C 64.2°F17.9°C 95% 2.3 mph S3.7 kmh S 3.5 mph5.6 kmh 31.80 in1076.9 mb - 0.00 in0.0 mm 0.00 in0.0 mm
10:45 PM 65.7°F18.7°C 64.2°F17.9°C 95% 3.5 mph S5.6 kmh S 3.5 mph5.6 kmh 31.80 in1076.9 mb - 0.00 in0.0 mm 0.00 in0.0 mm
10:50 PM 65.7°F18.7°C 64.2°F17.9°C 95% 3.5 mph S5.6 kmh S 3.5 mph5.6 kmh 31.80 in1076.9 mb - 0.00 in0.0 mm 0.00 in0.0 mm
10:55 PM 65.7°F18.7°C 64.2°F17.9°C 95% 2.3 mph SSW3.7 kmh SSW 3.5 mph5.6 kmh 31.80 in1076.9 mb - 0.00 in0.0 mm 0.00 in0.0 mm
11:00 PM 65.7°F18.7°C 64.2°F17.9°C 95% 1.2 mph S1.9 kmh S 1.2 mph1.9 kmh 31.80 in1076.9 mb - 0.00 in0.0 mm 0.00 in0.0 mm
11:10 PM 65.7°F18.7°C 64.2°F17.9°C 95% 3.5 mph SSW5.6 kmh SSW 3.5 mph5.6 kmh 31.80 in1076.9 mb - 0.00 in0.0 mm 0.00 in0.0 mm
11:15 PM 65.7°F18.7°C 64.5°F18.1°C 96% 3.5 mph SSE5.6 kmh SSE 3.5 mph5.6 kmh 31.80 in1076.9 mb - 0.00 in0.0 mm 0.00 in0.0 mm
11:20 PM 65.7°F18.7°C 64.5°F18.1°C 96% 3.5 mph S5.6 kmh S 3.5 mph5.6 kmh 31.80 in1076.9 mb - 0.00 in0.0 mm 0.00 in0.0 mm
11:25 PM 65.9°F18.8°C 64.7°F18.2°C 96% 2.3 mph S3.7 kmh S 2.3 mph3.7 kmh 31.80 in1076.9 mb - 0.00 in0.0 mm 0.00 in0.0 mm
11:30 PM 65.9°F18.8°C 64.7°F18.2°C 96% 2.3 mph S3.7 kmh S 2.3 mph3.7 kmh 31.80 in1076.9 mb - 0.00 in0.0 mm 0.00 in0.0 mm
11:35 PM 66.0°F18.9°C 64.8°F18.2°C 96% 2.3 mph S3.7 kmh S 2.3 mph3.7 kmh 31.80 in1076.9 mb - 0.00 in0.0 mm 0.00 in0.0 mm
11:40 PM 66.2°F19.0°C 65.0°F18.3°C 96% 3.5 mph S5.6 kmh S 3.5 mph5.6 kmh 31.80 in1076.9 mb - 0.00 in0.0 mm 0.00 in0.0 mm
11:45 PM 66.0°F18.9°C 64.8°F18.2°C 96% 3.5 mph SSW5.6 kmh SSW 3.5 mph5.6 kmh 31.80 in1076.9 mb - 0.00 in0.0 mm 0.00 in0.0 mm
11:50 PM 66.0°F18.9°C 64.8°F18.2°C 96% 1.2 mph S1.9 kmh S 1.2 mph1.9 kmh 31.80 in1076.9 mb - 0.00 in0.0 mm 0.00 in0.0 mm
11:55 PM 65.9°F18.8°C 64.7°F18.2°C 96% 2.3 mph S3.7 kmh S 2.3 mph3.7 kmh 31.80 in1076.9 mb - 0.00 in0.0 mm 0.00 in0.0 mm